Lakefront Airport
KNEW : now visible

Airfield :











YOU CAN JOIN US ON...

 
LOGIN :

Register | Disclaimer

   EN    FR    IT 

 









Legend :    VFR   Marginal VFR   IFR   Intensive IFR   Very Intensive IFR
Visi :
Ceiling :
>= 8 km
>= 3000ft
5 to 8 km
1000 to 3000 ft
1500m to 5 km
500 to 1000 ft
800 to 1500m
200 to 500 ft
< 800m
< 200 ft
Symbols :   Thunderstorms  Fog  Heavy snow  Heavy precipitations  Wind > 20 kt






- Airport Elevation : 8 ft


KNEW - Lakefront

CURRENT METAR :
  • 201453Z 05006KT 10SM FEW027 29/22 A2995 RMK AO2 SLP136 T02940222 50012

EXPIRED METARs :
  • 201353Z 07004KT 10SM CLR 28/22 A2995 RMK AO2 SLP136 T02830222
  • 201253Z 09003KT 10SM CLR 27/22 A2994 RMK AO2 SLP131 T02720222
  • 201153Z 16003KT 10SM CLR 25/22 A2992 RMK AO2 SLP124 T02500222 10267 20244 53008
  • 201053Z AUTO 13003KT 10SM CLR 24/22 A2989 RMK AO2 SLP115 T02440217

TAF KNEW
Valid from the 20 at 12:00 until the 21 at 12:00 UTC


201120Z 2012/2112 00000KT P6SM SKC
FM201800 09007KT P6SM FEW045
KZHU FIR / North America



MET'MAP, your aeronautical weather chart ! - Copyright ORBIFLY December 2007 - Disclaimer

ORBIFLY MET'MAP TEAM :

Programming & Development : Alexandra Zaïnal
Original concept : Baudouin d'Aumeries
Technical & hardware support : Manuel Goepfert
Assistance : Marc-Olivier Méhu




SOURCES & CREDITS :

   NOAA       Earth
Advisory